sensor_id;sensor_type;location;lat;lon;timestamp;temperature;humidity
7708;DHT22;3896;48.758;8.888;2022-09-09T00:01:56;15.50;99.90
7708;DHT22;3896;48.758;8.888;2022-09-09T00:04:28;15.40;99.60
7708;DHT22;3896;48.758;8.888;2022-09-09T00:07:04;15.40;99.90
7708;DHT22;3896;48.758;8.888;2022-09-09T00:09:45;15.50;99.90
7708;DHT22;3896;48.758;8.888;2022-09-09T00:12:57;15.40;99.90
7708;DHT22;3896;48.758;8.888;2022-09-09T00:15:07;15.40;99.90
7708;DHT22;3896;48.758;8.888;2022-09-09T00:17:43;15.40;99.90
7708;DHT22;3896;48.758;8.888;2022-09-09T00:23:30;15.40;99.90
7708;DHT22;3896;48.758;8.888;2022-09-09T00:26:04;15.40;99.90
7708;DHT22;3896;48.758;8.888;2022-09-09T00:28:59;15.40;99.90
7708;DHT22;3896;48.758;8.888;2022-09-09T00:31:25;15.50;99.90
7708;DHT22;3896;48.758;8.888;2022-09-09T00:33:53;15.50;99.90
7708;DHT22;3896;48.758;8.888;2022-09-09T00:36:22;15.50;99.90
7708;DHT22;3896;48.758;8.888;2022-09-09T00:38:52;15.50;99.30
7708;DHT22;3896;48.758;8.888;2022-09-09T00:55:10;15.70;98.00
7708;DHT22;3896;48.758;8.888;2022-09-09T00:57:38;15.70;97.60
7708;DHT22;3896;48.758;8.888;2022-09-09T01:00:17;15.70;98.40
7708;DHT22;3896;48.758;8.888;2022-09-09T01:08:06;15.70;99.20
7708;DHT22;3896;48.758;8.888;2022-09-09T01:10:43;15.80;99.70
7708;DHT22;3896;48.758;8.888;2022-09-09T01:13:33;15.80;99.90
7708;DHT22;3896;48.758;8.888;2022-09-09T01:16:01;15.80;99.70
7708;DHT22;3896;48.758;8.888;2022-09-09T01:18:37;15.80;99.90
7708;DHT22;3896;48.758;8.888;2022-09-09T01:26:43;15.80;99.90
7708;DHT22;3896;48.758;8.888;2022-09-09T01:29:12;15.80;99.90
7708;DHT22;3896;48.758;8.888;2022-09-09T01:31:57;15.90;99.40
7708;DHT22;3896;48.758;8.888;2022-09-09T01:34:26;15.90;98.10
7708;DHT22;3896;48.758;8.888;2022-09-09T01:37:01;15.90;98.20
7708;DHT22;3896;48.758;8.888;2022-09-09T01:39:28;15.90;98.00
7708;DHT22;3896;48.758;8.888;2022-09-09T01:41:54;16.00;98.00
7708;DHT22;3896;48.758;8.888;2022-09-09T01:44:21;16.00;97.80
7708;DHT22;3896;48.758;8.888;2022-09-09T01:46:47;16.00;97.80
7708;DHT22;3896;48.758;8.888;2022-09-09T01:49:12;16.00;97.40
7708;DHT22;3896;48.758;8.888;2022-09-09T01:51:39;16.00;97.00
7708;DHT22;3896;48.758;8.888;2022-09-09T01:54:06;16.10;97.00
7708;DHT22;3896;48.758;8.888;2022-09-09T01:56:50;16.10;96.90
7708;DHT22;3896;48.758;8.888;2022-09-09T02:02:07;16.00;96.40
7708;DHT22;3896;48.758;8.888;2022-09-09T02:04:40;16.10;96.40
7708;DHT22;3896;48.758;8.888;2022-09-09T02:07:23;16.10;96.00
7708;DHT22;3896;48.758;8.888;2022-09-09T02:09:57;16.10;95.60
7708;DHT22;3896;48.758;8.888;2022-09-09T02:12:25;16.10;95.50
7708;DHT22;3896;48.758;8.888;2022-09-09T02:14:56;16.10;95.60
7708;DHT22;3896;48.758;8.888;2022-09-09T02:17:30;16.10;95.90
7708;DHT22;3896;48.758;8.888;2022-09-09T02:20:10;16.10;96.10
7708;DHT22;3896;48.758;8.888;2022-09-09T02:22:39;16.10;96.10
7708;DHT22;3896;48.758;8.888;2022-09-09T02:25:08;16.10;96.30
7708;DHT22;3896;48.758;8.888;2022-09-09T02:27:35;16.10;96.50
7708;DHT22;3896;48.758;8.888;2022-09-09T02:30:03;16.10;96.50
7708;DHT22;3896;48.758;8.888;2022-09-09T02:32:30;16.10;96.40
7708;DHT22;3896;48.758;8.888;2022-09-09T02:35:02;16.10;96.40
7708;DHT22;3896;48.758;8.888;2022-09-09T02:37:37;16.10;96.30
7708;DHT22;3896;48.758;8.888;2022-09-09T02:40:07;16.10;96.10
7708;DHT22;3896;48.758;8.888;2022-09-09T02:42:41;16.10;96.20
7708;DHT22;3896;48.758;8.888;2022-09-09T02:45:10;16.10;96.20
7708;DHT22;3896;48.758;8.888;2022-09-09T02:47:41;16.10;96.30
7708;DHT22;3896;48.758;8.888;2022-09-09T02:50:17;16.10;96.30
7708;DHT22;3896;48.758;8.888;2022-09-09T02:53:07;16.10;96.10
7708;DHT22;3896;48.758;8.888;2022-09-09T02:58:13;16.10;96.60
7708;DHT22;3896;48.758;8.888;2022-09-09T03:00:43;16.10;96.90
7708;DHT22;3896;48.758;8.888;2022-09-09T03:03:10;16.10;96.90
7708;DHT22;3896;48.758;8.888;2022-09-09T03:05:37;16.00;96.90
7708;DHT22;3896;48.758;8.888;2022-09-09T03:08:03;16.00;96.70
7708;DHT22;3896;48.758;8.888;2022-09-09T03:10:31;16.00;96.60
7708;DHT22;3896;48.758;8.888;2022-09-09T03:12:56;16.10;96.60
7708;DHT22;3896;48.758;8.888;2022-09-09T03:15:22;16.10;96.50
7708;DHT22;3896;48.758;8.888;2022-09-09T03:17:48;16.10;96.40
7708;DHT22;3896;48.758;8.888;2022-09-09T03:20:13;16.00;96.30
7708;DHT22;3896;48.758;8.888;2022-09-09T03:22:39;16.10;96.30
7708;DHT22;3896;48.758;8.888;2022-09-09T03:25:05;16.00;96.20
7708;DHT22;3896;48.758;8.888;2022-09-09T03:27:32;16.00;96.40
7708;DHT22;3896;48.758;8.888;2022-09-09T03:29:57;16.10;96.40
7708;DHT22;3896;48.758;8.888;2022-09-09T03:32:24;16.00;96.40
7708;DHT22;3896;48.758;8.888;2022-09-09T03:34:51;16.00;96.50
7708;DHT22;3896;48.758;8.888;2022-09-09T03:37:18;16.00;96.60
7708;DHT22;3896;48.758;8.888;2022-09-09T03:39:44;16.00;96.70
7708;DHT22;3896;48.758;8.888;2022-09-09T03:42:12;16.00;96.80
7708;DHT22;3896;48.758;8.888;2022-09-09T03:44:39;16.00;96.80
7708;DHT22;3896;48.758;8.888;2022-09-09T03:47:06;16.00;96.80
7708;DHT22;3896;48.758;8.888;2022-09-09T03:49:32;16.00;96.80
7708;DHT22;3896;48.758;8.888;2022-09-09T03:51:57;15.90;96.60
7708;DHT22;3896;48.758;8.888;2022-09-09T03:54:25;16.00;96.60
7708;DHT22;3896;48.758;8.888;2022-09-09T03:56:51;16.00;96.70
7708;DHT22;3896;48.758;8.888;2022-09-09T03:59:17;15.90;96.80
7708;DHT22;3896;48.758;8.888;2022-09-09T04:01:42;15.90;97.00
7708;DHT22;3896;48.758;8.888;2022-09-09T04:04:08;15.90;96.80
7708;DHT22;3896;48.758;8.888;2022-09-09T04:06:35;15.90;97.20
7708;DHT22;3896;48.758;8.888;2022-09-09T04:09:00;15.80;97.30
7708;DHT22;3896;48.758;8.888;2022-09-09T04:11:28;15.80;97.60
7708;DHT22;3896;48.758;8.888;2022-09-09T04:13:54;15.80;97.50
7708;DHT22;3896;48.758;8.888;2022-09-09T04:16:19;15.80;97.40
7708;DHT22;3896;48.758;8.888;2022-09-09T04:18:45;15.80;97.60
7708;DHT22;3896;48.758;8.888;2022-09-09T04:21:11;15.80;97.70
7708;DHT22;3896;48.758;8.888;2022-09-09T04:23:38;15.80;97.80
7708;DHT22;3896;48.758;8.888;2022-09-09T04:26:04;15.80;97.90
7708;DHT22;3896;48.758;8.888;2022-09-09T04:28:32;15.80;98.00
7708;DHT22;3896;48.758;8.888;2022-09-09T04:31:05;15.80;98.00
7708;DHT22;3896;48.758;8.888;2022-09-09T04:33:31;15.80;98.00
7708;DHT22;3896;48.758;8.888;2022-09-09T04:36:00;15.80;97.80
7708;DHT22;3896;48.758;8.888;2022-09-09T04:38:29;15.80;97.60
7708;DHT22;3896;48.758;8.888;2022-09-09T04:40:55;15.80;97.50
7708;DHT22;3896;48.758;8.888;2022-09-09T04:43:21;15.80;97.60
7708;DHT22;3896;48.758;8.888;2022-09-09T04:45:49;15.80;97.90
7708;DHT22;3896;48.758;8.888;2022-09-09T04:48:15;15.80;98.40
7708;DHT22;3896;48.758;8.888;2022-09-09T04:50:40;15.80;98.30
7708;DHT22;3896;48.758;8.888;2022-09-09T04:53:06;15.80;98.60
7708;DHT22;3896;48.758;8.888;2022-09-09T04:55:33;15.80;99.00
7708;DHT22;3896;48.758;8.888;2022-09-09T04:58:04;15.80;99.60
7708;DHT22;3896;48.758;8.888;2022-09-09T05:00:31;15.80;99.80
7708;DHT22;3896;48.758;8.888;2022-09-09T05:02:56;15.70;99.90
7708;DHT22;3896;48.758;8.888;2022-09-09T05:05:22;15.80;99.90
7708;DHT22;3896;48.758;8.888;2022-09-09T05:07:47;15.70;99.90
7708;DHT22;3896;48.758;8.888;2022-09-09T05:10:15;15.70;99.90
7708;DHT22;3896;48.758;8.888;2022-09-09T05:12:51;15.70;99.90
7708;DHT22;3896;48.758;8.888;2022-09-09T05:15:17;15.70;99.90
7708;DHT22;3896;48.758;8.888;2022-09-09T05:17:42;15.70;99.90
7708;DHT22;3896;48.758;8.888;2022-09-09T05:20:08;15.70;99.90
7708;DHT22;3896;48.758;8.888;2022-09-09T05:22:34;15.70;99.90
7708;DHT22;3896;48.758;8.888;2022-09-09T05:25:00;15.70;99.90
7708;DHT22;3896;48.758;8.888;2022-09-09T05:27:26;15.70;99.90
7708;DHT22;3896;48.758;8.888;2022-09-09T05:29:52;15.70;99.90
7708;DHT22;3896;48.758;8.888;2022-09-09T05:32:17;15.70;99.90
7708;DHT22;3896;48.758;8.888;2022-09-09T05:34:43;15.70;99.90
7708;DHT22;3896;48.758;8.888;2022-09-09T05:37:08;15.70;99.90
7708;DHT22;3896;48.758;8.888;2022-09-09T05:39:34;15.70;99.90
7708;DHT22;3896;48.758;8.888;2022-09-09T05:42:02;15.70;99.90
7708;DHT22;3896;48.758;8.888;2022-09-09T05:44:29;15.70;99.90
7708;DHT22;3896;48.758;8.888;2022-09-09T05:46:55;15.70;99.90
7708;DHT22;3896;48.758;8.888;2022-09-09T05:49:20;15.70;99.90
7708;DHT22;3896;48.758;8.888;2022-09-09T05:51:46;15.80;99.90
7708;DHT22;3896;48.758;8.888;2022-09-09T05:54:13;15.70;99.90
7708;DHT22;3896;48.758;8.888;2022-09-09T05:56:40;15.80;99.90
7708;DHT22;3896;48.758;8.888;2022-09-09T05:59:06;15.80;99.90
7708;DHT22;3896;48.758;8.888;2022-09-09T06:01:34;15.80;99.90
7708;DHT22;3896;48.758;8.888;2022-09-09T06:04:00;15.80;99.90
7708;DHT22;3896;48.758;8.888;2022-09-09T06:06:30;15.80;99.90
7708;DHT22;3896;48.758;8.888;2022-09-09T06:08:59;15.80;99.90
7708;DHT22;3896;48.758;8.888;2022-09-09T06:11:27;15.80;99.90
7708;DHT22;3896;48.758;8.888;2022-09-09T06:13:56;15.80;99.90
7708;DHT22;3896;48.758;8.888;2022-09-09T06:16:24;15.80;99.90
7708;DHT22;3896;48.758;8.888;2022-09-09T06:18:51;15.90;99.90
7708;DHT22;3896;48.758;8.888;2022-09-09T06:21:24;15.90;99.90
7708;DHT22;3896;48.758;8.888;2022-09-09T06:23:50;15.90;99.90
7708;DHT22;3896;48.758;8.888;2022-09-09T06:26:18;15.90;99.90
7708;DHT22;3896;48.758;8.888;2022-09-09T06:28:45;15.90;99.90
7708;DHT22;3896;48.758;8.888;2022-09-09T06:31:12;15.90;99.90
7708;DHT22;3896;48.758;8.888;2022-09-09T06:33:42;15.90;99.90
7708;DHT22;3896;48.758;8.888;2022-09-09T06:36:22;16.00;99.90
7708;DHT22;3896;48.758;8.888;2022-09-09T06:38:48;16.00;99.90
7708;DHT22;3896;48.758;8.888;2022-09-09T06:41:16;16.00;99.90
7708;DHT22;3896;48.758;8.888;2022-09-09T06:43:42;16.00;99.90
7708;DHT22;3896;48.758;8.888;2022-09-09T06:46:20;16.10;99.90
7708;DHT22;3896;48.758;8.888;2022-09-09T06:48:47;16.10;99.90
7708;DHT22;3896;48.758;8.888;2022-09-09T06:51:18;16.10;99.90
7708;DHT22;3896;48.758;8.888;2022-09-09T06:53:45;16.10;99.90
7708;DHT22;3896;48.758;8.888;2022-09-09T06:58:43;16.20;99.90
7708;DHT22;3896;48.758;8.888;2022-09-09T07:01:13;16.20;99.90
7708;DHT22;3896;48.758;8.888;2022-09-09T07:03:41;16.30;99.90
7708;DHT22;3896;48.758;8.888;2022-09-09T07:06:09;16.30;99.90
7708;DHT22;3896;48.758;8.888;2022-09-09T07:08:39;16.40;99.90
7708;DHT22;3896;48.758;8.888;2022-09-09T07:11:07;16.40;99.90
7708;DHT22;3896;48.758;8.888;2022-09-09T07:13:34;16.50;99.90
7708;DHT22;3896;48.758;8.888;2022-09-09T07:16:07;16.60;99.90
7708;DHT22;3896;48.758;8.888;2022-09-09T07:18:33;16.60;99.90
7708;DHT22;3896;48.758;8.888;2022-09-09T07:21:00;16.70;99.90
7708;DHT22;3896;48.758;8.888;2022-09-09T07:23:26;16.80;99.90
7708;DHT22;3896;48.758;8.888;2022-09-09T07:25:52;16.80;99.90
7708;DHT22;3896;48.758;8.888;2022-09-09T07:28:19;16.90;99.90
7708;DHT22;3896;48.758;8.888;2022-09-09T07:30:56;17.00;99.90
7708;DHT22;3896;48.758;8.888;2022-09-09T07:33:22;17.00;99.90
7708;DHT22;3896;48.758;8.888;2022-09-09T07:35:48;17.10;99.90
7708;DHT22;3896;48.758;8.888;2022-09-09T07:38:14;17.20;99.90
7708;DHT22;3896;48.758;8.888;2022-09-09T07:40:40;17.20;99.90
7708;DHT22;3896;48.758;8.888;2022-09-09T07:43:06;17.30;99.90
7708;DHT22;3896;48.758;8.888;2022-09-09T07:45:33;17.40;99.90
7708;DHT22;3896;48.758;8.888;2022-09-09T07:48:00;17.50;99.90
7708;DHT22;3896;48.758;8.888;2022-09-09T07:50:25;17.60;99.90
7708;DHT22;3896;48.758;8.888;2022-09-09T07:52:51;17.80;99.80
7708;DHT22;3896;48.758;8.888;2022-09-09T07:55:17;17.90;99.40
7708;DHT22;3896;48.758;8.888;2022-09-09T07:57:43;18.00;99.60
7708;DHT22;3896;48.758;8.888;2022-09-09T08:00:09;18.10;99.50
7708;DHT22;3896;48.758;8.888;2022-09-09T08:02:35;18.20;98.70
7708;DHT22;3896;48.758;8.888;2022-09-09T08:05:01;18.30;98.80
7708;DHT22;3896;48.758;8.888;2022-09-09T08:07:27;18.30;98.60
7708;DHT22;3896;48.758;8.888;2022-09-09T08:09:54;18.50;98.60
7708;DHT22;3896;48.758;8.888;2022-09-09T08:12:21;18.60;98.40
7708;DHT22;3896;48.758;8.888;2022-09-09T08:14:46;18.80;98.00
7708;DHT22;3896;48.758;8.888;2022-09-09T08:17:13;19.00;97.30
7708;DHT22;3896;48.758;8.888;2022-09-09T08:19:38;19.20;96.20
7708;DHT22;3896;48.758;8.888;2022-09-09T08:22:04;19.30;95.30
7708;DHT22;3896;48.758;8.888;2022-09-09T08:24:29;19.50;94.30
7708;DHT22;3896;48.758;8.888;2022-09-09T08:26:55;19.70;93.40
7708;DHT22;3896;48.758;8.888;2022-09-09T08:29:22;19.80;93.40
7708;DHT22;3896;48.758;8.888;2022-09-09T08:31:50;20.00;92.80
7708;DHT22;3896;48.758;8.888;2022-09-09T08:34:16;20.10;92.00
7708;DHT22;3896;48.758;8.888;2022-09-09T08:36:46;20.30;90.60
7708;DHT22;3896;48.758;8.888;2022-09-09T08:39:15;20.50;89.20
7708;DHT22;3896;48.758;8.888;2022-09-09T08:50:17;21.00;82.90
7708;DHT22;3896;48.758;8.888;2022-09-09T08:53:01;21.10;81.70
7708;DHT22;3896;48.758;8.888;2022-09-09T08:55:39;21.20;81.60
7708;DHT22;3896;48.758;8.888;2022-09-09T08:58:24;21.30;80.70
7708;DHT22;3896;48.758;8.888;2022-09-09T09:03:57;21.40;78.40
7708;DHT22;3896;48.758;8.888;2022-09-09T09:12:01;21.50;77.90
7708;DHT22;3896;48.758;8.888;2022-09-09T09:14:30;21.50;76.80
7708;DHT22;3896;48.758;8.888;2022-09-09T09:17:02;21.60;76.90
7708;DHT22;3896;48.758;8.888;2022-09-09T09:19:30;21.60;76.10
7708;DHT22;3896;48.758;8.888;2022-09-09T09:22:00;21.70;76.90
7708;DHT22;3896;48.758;8.888;2022-09-09T09:24:50;21.80;75.50
7708;DHT22;3896;48.758;8.888;2022-09-09T09:27:43;21.90;75.50
7708;DHT22;3896;48.758;8.888;2022-09-09T09:30:21;22.00;75.60
7708;DHT22;3896;48.758;8.888;2022-09-09T09:35:19;22.20;73.90
7708;DHT22;3896;48.758;8.888;2022-09-09T09:37:45;22.30;73.00
7708;DHT22;3896;48.758;8.888;2022-09-09T09:40:14;22.50;71.60
7708;DHT22;3896;48.758;8.888;2022-09-09T09:42:58;22.60;70.70
7708;DHT22;3896;48.758;8.888;2022-09-09T09:48:26;22.80;69.00
7708;DHT22;3896;48.758;8.888;2022-09-09T09:51:01;23.00;68.80
7708;DHT22;3896;48.758;8.888;2022-09-09T09:53:30;23.00;67.70
7708;DHT22;3896;48.758;8.888;2022-09-09T09:56:05;23.10;67.30
7708;DHT22;3896;48.758;8.888;2022-09-09T09:58:37;23.20;67.10
7708;DHT22;3896;48.758;8.888;2022-09-09T10:01:27;23.30;66.70
7708;DHT22;3896;48.758;8.888;2022-09-09T10:03:58;23.40;65.90
7708;DHT22;3896;48.758;8.888;2022-09-09T10:06:36;23.50;64.10
7708;DHT22;3896;48.758;8.888;2022-09-09T10:09:26;23.60;63.40
7708;DHT22;3896;48.758;8.888;2022-09-09T10:56:26;22.80;69.90
7708;DHT22;3896;48.758;8.888;2022-09-09T10:59:18;22.70;69.40
7708;DHT22;3896;48.758;8.888;2022-09-09T11:01:53;22.50;68.00
7708;DHT22;3896;48.758;8.888;2022-09-09T11:05:21;22.40;67.60
7708;DHT22;3896;48.758;8.888;2022-09-09T11:07:42;22.20;66.90
7708;DHT22;3896;48.758;8.888;2022-09-09T11:16:45;22.00;67.30
7708;DHT22;3896;48.758;8.888;2022-09-09T11:21:55;21.80;69.10
7708;DHT22;3896;48.758;8.888;2022-09-09T11:24:33;21.70;70.60
7708;DHT22;3896;48.758;8.888;2022-09-09T11:27:31;21.60;71.00
7708;DHT22;3896;48.758;8.888;2022-09-09T11:42:46;21.20;74.90
7708;DHT22;3896;48.758;8.888;2022-09-09T11:45:24;21.20;75.50
7708;DHT22;3896;48.758;8.888;2022-09-09T11:47:52;21.10;76.90
7708;DHT22;3896;48.758;8.888;2022-09-09T11:52:46;21.20;78.70
7708;DHT22;3896;48.758;8.888;2022-09-09T11:55:27;21.20;79.40
7708;DHT22;3896;48.758;8.888;2022-09-09T11:58:02;21.30;78.00
7708;DHT22;3896;48.758;8.888;2022-09-09T12:00:46;21.30;78.10
7708;DHT22;3896;48.758;8.888;2022-09-09T12:05:57;21.40;78.30
7708;DHT22;3896;48.758;8.888;2022-09-09T12:08:28;21.50;77.60
7708;DHT22;3896;48.758;8.888;2022-09-09T12:10:57;21.50;78.70
7708;DHT22;3896;48.758;8.888;2022-09-09T12:13:24;21.60;79.40
7708;DHT22;3896;48.758;8.888;2022-09-09T12:15:55;21.70;79.10
7708;DHT22;3896;48.758;8.888;2022-09-09T12:18:38;21.90;77.80
7708;DHT22;3896;48.758;8.888;2022-09-09T12:21:13;22.10;77.60
7708;DHT22;3896;48.758;8.888;2022-09-09T12:23:48;22.30;76.40
7708;DHT22;3896;48.758;8.888;2022-09-09T12:31:38;22.90;75.40
7708;DHT22;3896;48.758;8.888;2022-09-09T12:34:41;23.10;72.90
7708;DHT22;3896;48.758;8.888;2022-09-09T12:37:32;23.30;71.70
7708;DHT22;3896;48.758;8.888;2022-09-09T12:40:00;23.60;69.70
7708;DHT22;3896;48.758;8.888;2022-09-09T12:42:27;23.90;68.70
7708;DHT22;3896;48.758;8.888;2022-09-09T12:44:57;24.10;66.10
7708;DHT22;3896;48.758;8.888;2022-09-09T12:49:58;24.60;62.10
7708;DHT22;3896;48.758;8.888;2022-09-09T12:52:35;24.90;61.00
7708;DHT22;3896;48.758;8.888;2022-09-09T12:55:04;25.10;59.90
7708;DHT22;3896;48.758;8.888;2022-09-09T12:57:35;25.40;60.40
7708;DHT22;3896;48.758;8.888;2022-09-09T13:00:11;25.60;59.40
7708;DHT22;3896;48.758;8.888;2022-09-09T13:02:54;25.80;58.50
7708;DHT22;3896;48.758;8.888;2022-09-09T13:05:36;26.00;58.50
7708;DHT22;3896;48.758;8.888;2022-09-09T13:08:04;26.30;56.90
7708;DHT22;3896;48.758;8.888;2022-09-09T13:10:43;26.50;56.50
7708;DHT22;3896;48.758;8.888;2022-09-09T13:13:27;26.70;56.00
7708;DHT22;3896;48.758;8.888;2022-09-09T13:15:59;26.90;54.10
7708;DHT22;3896;48.758;8.888;2022-09-09T13:18:34;27.20;53.30
7708;DHT22;3896;48.758;8.888;2022-09-09T13:21:00;27.40;53.30
7708;DHT22;3896;48.758;8.888;2022-09-09T13:23:31;27.60;52.30
7708;DHT22;3896;48.758;8.888;2022-09-09T13:26:00;27.70;51.40
7708;DHT22;3896;48.758;8.888;2022-09-09T13:28:28;27.90;51.20
7708;DHT22;3896;48.758;8.888;2022-09-09T13:30:59;28.00;50.50
7708;DHT22;3896;48.758;8.888;2022-09-09T13:33:38;28.10;50.40
7708;DHT22;3896;48.758;8.888;2022-09-09T13:36:08;28.30;49.90
7708;DHT22;3896;48.758;8.888;2022-09-09T13:38:53;28.40;49.90
7708;DHT22;3896;48.758;8.888;2022-09-09T13:41:21;28.50;47.90
7708;DHT22;3896;48.758;8.888;2022-09-09T13:43:49;28.70;46.70
7708;DHT22;3896;48.758;8.888;2022-09-09T13:46:35;28.70;47.00
7708;DHT22;3896;48.758;8.888;2022-09-09T13:49:21;28.80;46.30
7708;DHT22;3896;48.758;8.888;2022-09-09T13:51:51;28.90;45.90
7708;DHT22;3896;48.758;8.888;2022-09-09T13:54:20;29.00;45.70
7708;DHT22;3896;48.758;8.888;2022-09-09T13:56:46;29.10;44.80
7708;DHT22;3896;48.758;8.888;2022-09-09T13:59:14;29.20;44.70
7708;DHT22;3896;48.758;8.888;2022-09-09T14:01:40;29.30;45.10
7708;DHT22;3896;48.758;8.888;2022-09-09T14:04:06;29.40;44.20
7708;DHT22;3896;48.758;8.888;2022-09-09T14:06:32;29.40;43.40
7708;DHT22;3896;48.758;8.888;2022-09-09T14:08:58;29.60;44.00
7708;DHT22;3896;48.758;8.888;2022-09-09T14:11:24;29.60;43.70
7708;DHT22;3896;48.758;8.888;2022-09-09T14:13:50;29.70;43.40
7708;DHT22;3896;48.758;8.888;2022-09-09T14:16:19;29.80;42.60
7708;DHT22;3896;48.758;8.888;2022-09-09T14:18:45;29.80;42.10
7708;DHT22;3896;48.758;8.888;2022-09-09T14:21:11;29.80;42.00
7708;DHT22;3896;48.758;8.888;2022-09-09T14:23:37;29.80;41.70
7708;DHT22;3896;48.758;8.888;2022-09-09T14:26:04;29.80;42.60
7708;DHT22;3896;48.758;8.888;2022-09-09T14:28:30;29.70;42.20
7708;DHT22;3896;48.758;8.888;2022-09-09T14:30:59;29.70;41.90
7708;DHT22;3896;48.758;8.888;2022-09-09T14:33:26;29.70;42.20
7708;DHT22;3896;48.758;8.888;2022-09-09T14:35:59;29.70;41.80
7708;DHT22;3896;48.758;8.888;2022-09-09T14:38:28;29.70;41.50
7708;DHT22;3896;48.758;8.888;2022-09-09T14:40:54;29.80;41.70
7708;DHT22;3896;48.758;8.888;2022-09-09T14:43:19;29.80;41.60
7708;DHT22;3896;48.758;8.888;2022-09-09T14:45:46;29.90;41.30
7708;DHT22;3896;48.758;8.888;2022-09-09T14:48:13;29.90;40.90
7708;DHT22;3896;48.758;8.888;2022-09-09T14:50:40;30.00;40.50
7708;DHT22;3896;48.758;8.888;2022-09-09T14:53:07;30.00;40.80
7708;DHT22;3896;48.758;8.888;2022-09-09T14:55:34;30.00;41.20
7708;DHT22;3896;48.758;8.888;2022-09-09T14:58:00;30.10;41.20
7708;DHT22;3896;48.758;8.888;2022-09-09T15:00:25;30.00;41.30
7708;DHT22;3896;48.758;8.888;2022-09-09T15:02:54;29.90;40.90
7708;DHT22;3896;48.758;8.888;2022-09-09T15:05:20;29.90;40.80
7708;DHT22;3896;48.758;8.888;2022-09-09T15:07:46;29.80;41.20
7708;DHT22;3896;48.758;8.888;2022-09-09T15:10:13;29.80;41.40
7708;DHT22;3896;48.758;8.888;2022-09-09T15:12:39;29.70;41.40
7708;DHT22;3896;48.758;8.888;2022-09-09T15:15:05;29.60;41.90
7708;DHT22;3896;48.758;8.888;2022-09-09T15:17:31;29.50;41.90
7708;DHT22;3896;48.758;8.888;2022-09-09T15:19:56;29.40;42.30
7708;DHT22;3896;48.758;8.888;2022-09-09T15:22:23;29.30;42.40
7708;DHT22;3896;48.758;8.888;2022-09-09T15:24:49;29.20;42.90
7708;DHT22;3896;48.758;8.888;2022-09-09T15:27:15;29.10;43.10
7708;DHT22;3896;48.758;8.888;2022-09-09T15:29:41;28.90;42.90
7708;DHT22;3896;48.758;8.888;2022-09-09T15:32:07;28.80;43.00
7708;DHT22;3896;48.758;8.888;2022-09-09T15:34:33;28.60;43.20
7708;DHT22;3896;48.758;8.888;2022-09-09T15:36:59;28.40;43.10
7708;DHT22;3896;48.758;8.888;2022-09-09T15:39:27;28.30;43.00
7708;DHT22;3896;48.758;8.888;2022-09-09T15:41:53;28.20;42.80
7708;DHT22;3896;48.758;8.888;2022-09-09T15:44:19;28.00;43.00
7708;DHT22;3896;48.758;8.888;2022-09-09T15:46:53;27.90;43.60
7708;DHT22;3896;48.758;8.888;2022-09-09T15:49:22;27.70;44.20
7708;DHT22;3896;48.758;8.888;2022-09-09T15:51:53;27.50;44.20
7708;DHT22;3896;48.758;8.888;2022-09-09T15:54:21;27.40;44.30
7708;DHT22;3896;48.758;8.888;2022-09-09T15:56:51;27.30;44.20
7708;DHT22;3896;48.758;8.888;2022-09-09T15:59:17;27.10;44.60
7708;DHT22;3896;48.758;8.888;2022-09-09T16:01:43;27.00;45.00
7708;DHT22;3896;48.758;8.888;2022-09-09T16:04:09;26.80;45.20
7708;DHT22;3896;48.758;8.888;2022-09-09T16:06:35;26.70;45.80
7708;DHT22;3896;48.758;8.888;2022-09-09T16:09:03;26.50;46.20
7708;DHT22;3896;48.758;8.888;2022-09-09T16:11:37;26.30;46.60
7708;DHT22;3896;48.758;8.888;2022-09-09T16:14:03;26.00;46.60
7708;DHT22;3896;48.758;8.888;2022-09-09T16:16:30;25.80;46.80
7708;DHT22;3896;48.758;8.888;2022-09-09T16:19:00;25.70;47.20
7708;DHT22;3896;48.758;8.888;2022-09-09T16:21:29;25.40;47.60
7708;DHT22;3896;48.758;8.888;2022-09-09T16:23:55;25.20;48.00
7708;DHT22;3896;48.758;8.888;2022-09-09T16:26:22;25.10;48.30
7708;DHT22;3896;48.758;8.888;2022-09-09T16:28:48;24.90;49.00
7708;DHT22;3896;48.758;8.888;2022-09-09T16:31:19;24.80;49.90
7708;DHT22;3896;48.758;8.888;2022-09-09T16:33:46;24.60;51.10
7708;DHT22;3896;48.758;8.888;2022-09-09T16:36:15;24.50;52.60
7708;DHT22;3896;48.758;8.888;2022-09-09T16:38:41;24.40;53.40
7708;DHT22;3896;48.758;8.888;2022-09-09T16:41:09;24.30;54.60
7708;DHT22;3896;48.758;8.888;2022-09-09T16:43:36;24.10;55.10
7708;DHT22;3896;48.758;8.888;2022-09-09T16:46:03;24.00;55.20
7708;DHT22;3896;48.758;8.888;2022-09-09T16:48:33;23.90;56.20
7708;DHT22;3896;48.758;8.888;2022-09-09T16:51:07;23.80;56.60
7708;DHT22;3896;48.758;8.888;2022-09-09T16:53:34;23.60;56.60
7708;DHT22;3896;48.758;8.888;2022-09-09T16:56:06;23.60;56.80
7708;DHT22;3896;48.758;8.888;2022-09-09T16:58:32;23.40;56.70
7708;DHT22;3896;48.758;8.888;2022-09-09T17:01:00;23.40;56.80
7708;DHT22;3896;48.758;8.888;2022-09-09T17:03:27;23.30;56.80
7708;DHT22;3896;48.758;8.888;2022-09-09T17:05:52;23.20;56.80
7708;DHT22;3896;48.758;8.888;2022-09-09T17:08:18;23.10;56.70
7708;DHT22;3896;48.758;8.888;2022-09-09T17:10:44;23.00;56.90
7708;DHT22;3896;48.758;8.888;2022-09-09T17:13:09;22.90;56.90
7708;DHT22;3896;48.758;8.888;2022-09-09T17:15:42;22.80;57.30
7708;DHT22;3896;48.758;8.888;2022-09-09T17:18:09;22.60;58.00
7708;DHT22;3896;48.758;8.888;2022-09-09T17:20:39;22.50;58.40
7708;DHT22;3896;48.758;8.888;2022-09-09T17:23:07;22.40;58.90
7708;DHT22;3896;48.758;8.888;2022-09-09T17:25:32;22.30;59.50
7708;DHT22;3896;48.758;8.888;2022-09-09T17:27:58;22.10;60.20
7708;DHT22;3896;48.758;8.888;2022-09-09T17:30:26;22.00;61.20
7708;DHT22;3896;48.758;8.888;2022-09-09T17:32:52;21.90;62.20
7708;DHT22;3896;48.758;8.888;2022-09-09T17:35:18;21.80;63.00
7708;DHT22;3896;48.758;8.888;2022-09-09T17:37:44;21.70;62.90
7708;DHT22;3896;48.758;8.888;2022-09-09T17:40:10;21.60;62.50
7708;DHT22;3896;48.758;8.888;2022-09-09T17:42:36;21.50;62.80
7708;DHT22;3896;48.758;8.888;2022-09-09T17:45:01;21.40;62.10
7708;DHT22;3896;48.758;8.888;2022-09-09T17:47:27;21.40;61.90
7708;DHT22;3896;48.758;8.888;2022-09-09T17:49:53;21.40;62.00
7708;DHT22;3896;48.758;8.888;2022-09-09T17:52:19;21.30;62.10
7708;DHT22;3896;48.758;8.888;2022-09-09T17:54:45;21.20;62.40
7708;DHT22;3896;48.758;8.888;2022-09-09T17:57:11;21.10;62.80
7708;DHT22;3896;48.758;8.888;2022-09-09T17:59:36;21.00;63.50
7708;DHT22;3896;48.758;8.888;2022-09-09T18:02:02;20.90;64.30
7708;DHT22;3896;48.758;8.888;2022-09-09T18:04:30;20.80;64.90
7708;DHT22;3896;48.758;8.888;2022-09-09T18:06:57;20.80;65.80
7708;DHT22;3896;48.758;8.888;2022-09-09T18:09:25;20.70;67.10
7708;DHT22;3896;48.758;8.888;2022-09-09T18:11:56;20.60;66.80
7708;DHT22;3896;48.758;8.888;2022-09-09T18:14:26;20.50;67.10
7708;DHT22;3896;48.758;8.888;2022-09-09T18:16:52;20.40;67.70
7708;DHT22;3896;48.758;8.888;2022-09-09T18:19:21;20.30;68.20
7708;DHT22;3896;48.758;8.888;2022-09-09T18:21:47;20.30;68.40
7708;DHT22;3896;48.758;8.888;2022-09-09T18:24:15;20.30;68.00
7708;DHT22;3896;48.758;8.888;2022-09-09T18:26:42;20.20;67.60
7708;DHT22;3896;48.758;8.888;2022-09-09T18:29:11;20.20;67.30
7708;DHT22;3896;48.758;8.888;2022-09-09T18:31:38;20.10;66.90
7708;DHT22;3896;48.758;8.888;2022-09-09T18:34:05;20.10;66.40
7708;DHT22;3896;48.758;8.888;2022-09-09T18:36:34;20.10;66.30